sensor_id;sensor_type;location;lat;lon;timestamp;temperature;humidity
19665;DHT22;9980;51.020;7.772;2024-03-29T00:01:25;9.00;99.90
19665;DHT22;9980;51.020;7.772;2024-03-29T00:03:51;8.90;99.90
19665;DHT22;9980;51.020;7.772;2024-03-29T00:06:18;8.90;99.90
19665;DHT22;9980;51.020;7.772;2024-03-29T00:08:45;8.90;99.90
19665;DHT22;9980;51.020;7.772;2024-03-29T00:11:11;8.80;99.90
19665;DHT22;9980;51.020;7.772;2024-03-29T00:13:37;8.80;99.90
19665;DHT22;9980;51.020;7.772;2024-03-29T00:16:03;8.80;99.90
19665;DHT22;9980;51.020;7.772;2024-03-29T00:18:29;8.80;99.90
19665;DHT22;9980;51.020;7.772;2024-03-29T00:20:55;8.80;99.90
19665;DHT22;9980;51.020;7.772;2024-03-29T00:23:21;8.80;99.90
19665;DHT22;9980;51.020;7.772;2024-03-29T00:25:47;8.80;99.90
19665;DHT22;9980;51.020;7.772;2024-03-29T00:28:14;8.70;99.90
19665;DHT22;9980;51.020;7.772;2024-03-29T00:30:40;8.80;99.90
19665;DHT22;9980;51.020;7.772;2024-03-29T00:33:06;8.70;99.90
19665;DHT22;9980;51.020;7.772;2024-03-29T00:35:32;8.80;99.90
19665;DHT22;9980;51.020;7.772;2024-03-29T00:37:58;8.70;99.90
19665;DHT22;9980;51.020;7.772;2024-03-29T00:40:24;8.80;99.90
19665;DHT22;9980;51.020;7.772;2024-03-29T00:42:50;8.80;99.90
19665;DHT22;9980;51.020;7.772;2024-03-29T00:45:16;8.80;99.90
19665;DHT22;9980;51.020;7.772;2024-03-29T00:47:42;8.80;99.90
19665;DHT22;9980;51.020;7.772;2024-03-29T00:50:09;8.80;99.90
19665;DHT22;9980;51.020;7.772;2024-03-29T00:52:35;8.80;99.90
19665;DHT22;9980;51.020;7.772;2024-03-29T00:55:01;8.80;99.90
19665;DHT22;9980;51.020;7.772;2024-03-29T00:57:28;8.80;99.90
19665;DHT22;9980;51.020;7.772;2024-03-29T00:59:55;8.80;99.90
19665;DHT22;9980;51.020;7.772;2024-03-29T01:02:22;8.80;99.90
19665;DHT22;9980;51.020;7.772;2024-03-29T01:04:49;8.80;99.90
19665;DHT22;9980;51.020;7.772;2024-03-29T01:07:16;8.80;99.90
19665;DHT22;9980;51.020;7.772;2024-03-29T01:09:43;8.80;99.90
19665;DHT22;9980;51.020;7.772;2024-03-29T01:12:10;8.70;99.90
19665;DHT22;9980;51.020;7.772;2024-03-29T01:14:36;8.70;99.90
19665;DHT22;9980;51.020;7.772;2024-03-29T01:17:03;8.70;99.90
19665;DHT22;9980;51.020;7.772;2024-03-29T01:19:29;8.70;99.90
19665;DHT22;9980;51.020;7.772;2024-03-29T01:21:55;8.70;99.90
19665;DHT22;9980;51.020;7.772;2024-03-29T01:24:21;8.80;99.90
19665;DHT22;9980;51.020;7.772;2024-03-29T01:26:47;8.80;99.90
19665;DHT22;9980;51.020;7.772;2024-03-29T01:29:13;8.80;99.90
19665;DHT22;9980;51.020;7.772;2024-03-29T01:31:39;8.80;99.90
19665;DHT22;9980;51.020;7.772;2024-03-29T01:34:05;8.80;99.90
19665;DHT22;9980;51.020;7.772;2024-03-29T01:36:31;8.90;99.90
19665;DHT22;9980;51.020;7.772;2024-03-29T01:38:57;8.90;99.90
19665;DHT22;9980;51.020;7.772;2024-03-29T01:41:24;9.00;99.90
19665;DHT22;9980;51.020;7.772;2024-03-29T01:43:53;9.00;99.90
19665;DHT22;9980;51.020;7.772;2024-03-29T01:46:22;9.00;99.90
19665;DHT22;9980;51.020;7.772;2024-03-29T01:48:53;9.00;99.90
19665;DHT22;9980;51.020;7.772;2024-03-29T01:51:23;9.10;99.90
19665;DHT22;9980;51.020;7.772;2024-03-29T01:53:51;9.10;99.90
19665;DHT22;9980;51.020;7.772;2024-03-29T01:56:23;9.20;99.90
19665;DHT22;9980;51.020;7.772;2024-03-29T01:58:51;9.20;99.90
19665;DHT22;9980;51.020;7.772;2024-03-29T02:01:19;9.30;99.90
19665;DHT22;9980;51.020;7.772;2024-03-29T02:03:47;9.30;99.90
19665;DHT22;9980;51.020;7.772;2024-03-29T02:06:14;9.30;99.90
19665;DHT22;9980;51.020;7.772;2024-03-29T02:08:39;9.30;99.90
19665;DHT22;9980;51.020;7.772;2024-03-29T02:11:06;9.40;99.90
19665;DHT22;9980;51.020;7.772;2024-03-29T02:13:32;9.40;99.90
19665;DHT22;9980;51.020;7.772;2024-03-29T02:15:58;9.40;99.90
19665;DHT22;9980;51.020;7.772;2024-03-29T02:18:24;9.40;99.90
19665;DHT22;9980;51.020;7.772;2024-03-29T02:20:50;9.50;99.90
19665;DHT22;9980;51.020;7.772;2024-03-29T02:23:20;9.50;99.90
19665;DHT22;9980;51.020;7.772;2024-03-29T02:25:55;9.50;99.90
19665;DHT22;9980;51.020;7.772;2024-03-29T02:28:25;9.60;99.90
19665;DHT22;9980;51.020;7.772;2024-03-29T02:30:51;9.60;99.90
19665;DHT22;9980;51.020;7.772;2024-03-29T02:33:17;9.70;99.90
19665;DHT22;9980;51.020;7.772;2024-03-29T02:35:46;9.70;99.90
19665;DHT22;9980;51.020;7.772;2024-03-29T02:38:12;9.70;99.90
19665;DHT22;9980;51.020;7.772;2024-03-29T02:40:37;9.70;99.90
19665;DHT22;9980;51.020;7.772;2024-03-29T02:43:04;9.70;99.90
19665;DHT22;9980;51.020;7.772;2024-03-29T02:45:29;9.80;99.90
19665;DHT22;9980;51.020;7.772;2024-03-29T02:47:55;9.80;99.90
19665;DHT22;9980;51.020;7.772;2024-03-29T02:50:21;9.80;99.90
19665;DHT22;9980;51.020;7.772;2024-03-29T02:52:47;9.90;99.90
19665;DHT22;9980;51.020;7.772;2024-03-29T02:55:13;9.90;99.90
19665;DHT22;9980;51.020;7.772;2024-03-29T02:57:39;9.90;99.90
19665;DHT22;9980;51.020;7.772;2024-03-29T03:00:06;9.90;99.90
19665;DHT22;9980;51.020;7.772;2024-03-29T03:02:41;9.90;99.90
19665;DHT22;9980;51.020;7.772;2024-03-29T03:05:07;9.90;99.90
19665;DHT22;9980;51.020;7.772;2024-03-29T03:07:35;9.90;99.90
19665;DHT22;9980;51.020;7.772;2024-03-29T03:10:33;9.90;99.90
19665;DHT22;9980;51.020;7.772;2024-03-29T03:13:17;9.90;99.90
19665;DHT22;9980;51.020;7.772;2024-03-29T03:15:43;9.80;99.90
19665;DHT22;9980;51.020;7.772;2024-03-29T03:18:09;9.80;99.90
19665;DHT22;9980;51.020;7.772;2024-03-29T03:20:35;9.80;99.90
19665;DHT22;9980;51.020;7.772;2024-03-29T03:23:03;9.80;99.90
19665;DHT22;9980;51.020;7.772;2024-03-29T03:25:30;9.80;99.90
19665;DHT22;9980;51.020;7.772;2024-03-29T03:27:56;9.80;99.90
19665;DHT22;9980;51.020;7.772;2024-03-29T03:30:22;9.80;99.90
19665;DHT22;9980;51.020;7.772;2024-03-29T03:32:48;9.80;99.90
19665;DHT22;9980;51.020;7.772;2024-03-29T03:35:14;9.70;99.90
19665;DHT22;9980;51.020;7.772;2024-03-29T03:37:40;9.70;99.90
19665;DHT22;9980;51.020;7.772;2024-03-29T03:40:06;9.80;99.90
19665;DHT22;9980;51.020;7.772;2024-03-29T03:42:33;9.80;99.90
19665;DHT22;9980;51.020;7.772;2024-03-29T03:44:59;9.80;99.90
19665;DHT22;9980;51.020;7.772;2024-03-29T03:47:25;9.80;99.90
19665;DHT22;9980;51.020;7.772;2024-03-29T03:49:51;9.80;99.90
19665;DHT22;9980;51.020;7.772;2024-03-29T03:52:17;9.80;99.90
19665;DHT22;9980;51.020;7.772;2024-03-29T03:54:43;9.90;99.90
19665;DHT22;9980;51.020;7.772;2024-03-29T03:57:08;9.90;99.90
19665;DHT22;9980;51.020;7.772;2024-03-29T03:59:34;9.90;99.90
19665;DHT22;9980;51.020;7.772;2024-03-29T04:02:00;9.90;99.90
19665;DHT22;9980;51.020;7.772;2024-03-29T04:04:27;9.90;99.90
19665;DHT22;9980;51.020;7.772;2024-03-29T04:06:52;9.90;99.90
19665;DHT22;9980;51.020;7.772;2024-03-29T04:09:18;9.90;99.90
19665;DHT22;9980;51.020;7.772;2024-03-29T04:11:44;9.90;99.90
19665;DHT22;9980;51.020;7.772;2024-03-29T04:14:10;10.00;99.90
19665;DHT22;9980;51.020;7.772;2024-03-29T04:16:36;10.00;99.90
19665;DHT22;9980;51.020;7.772;2024-03-29T04:19:03;10.00;99.90
19665;DHT22;9980;51.020;7.772;2024-03-29T04:21:29;10.00;99.90
19665;DHT22;9980;51.020;7.772;2024-03-29T04:23:55;10.00;99.90
19665;DHT22;9980;51.020;7.772;2024-03-29T04:26:21;10.00;99.90
19665;DHT22;9980;51.020;7.772;2024-03-29T04:28:47;10.00;99.90
19665;DHT22;9980;51.020;7.772;2024-03-29T04:31:13;10.00;99.90
19665;DHT22;9980;51.020;7.772;2024-03-29T04:33:39;10.00;99.90
19665;DHT22;9980;51.020;7.772;2024-03-29T04:36:06;10.00;99.90
19665;DHT22;9980;51.020;7.772;2024-03-29T04:38:32;10.00;99.90
19665;DHT22;9980;51.020;7.772;2024-03-29T04:40:59;10.00;99.90
19665;DHT22;9980;51.020;7.772;2024-03-29T04:43:26;10.00;99.90
19665;DHT22;9980;51.020;7.772;2024-03-29T04:46:07;9.90;99.90
19665;DHT22;9980;51.020;7.772;2024-03-29T04:48:36;9.90;99.90
19665;DHT22;9980;51.020;7.772;2024-03-29T04:51:07;10.00;99.90
19665;DHT22;9980;51.020;7.772;2024-03-29T04:53:36;9.90;99.90
19665;DHT22;9980;51.020;7.772;2024-03-29T04:56:03;9.90;99.90
19665;DHT22;9980;51.020;7.772;2024-03-29T04:58:29;9.90;99.90
19665;DHT22;9980;51.020;7.772;2024-03-29T05:00:55;9.90;99.90
19665;DHT22;9980;51.020;7.772;2024-03-29T05:03:22;9.90;99.90
19665;DHT22;9980;51.020;7.772;2024-03-29T05:05:52;9.90;99.90
19665;DHT22;9980;51.020;7.772;2024-03-29T05:08:19;9.90;99.90
19665;DHT22;9980;51.020;7.772;2024-03-29T05:10:48;9.90;99.90
19665;DHT22;9980;51.020;7.772;2024-03-29T05:13:18;9.90;99.90
19665;DHT22;9980;51.020;7.772;2024-03-29T05:15:46;9.90;99.90
19665;DHT22;9980;51.020;7.772;2024-03-29T05:18:13;9.90;99.90
19665;DHT22;9980;51.020;7.772;2024-03-29T05:20:39;9.90;99.90
19665;DHT22;9980;51.020;7.772;2024-03-29T05:23:07;9.90;99.90
19665;DHT22;9980;51.020;7.772;2024-03-29T05:25:33;9.90;99.90
19665;DHT22;9980;51.020;7.772;2024-03-29T05:27:59;9.80;99.90
19665;DHT22;9980;51.020;7.772;2024-03-29T05:30:25;9.80;99.90
19665;DHT22;9980;51.020;7.772;2024-03-29T05:32:52;9.80;99.90
19665;DHT22;9980;51.020;7.772;2024-03-29T05:35:18;9.80;99.90
19665;DHT22;9980;51.020;7.772;2024-03-29T05:37:44;9.90;99.90
19665;DHT22;9980;51.020;7.772;2024-03-29T05:40:15;9.90;99.90
19665;DHT22;9980;51.020;7.772;2024-03-29T05:42:41;9.80;99.90
19665;DHT22;9980;51.020;7.772;2024-03-29T05:45:28;9.90;99.90
19665;DHT22;9980;51.020;7.772;2024-03-29T05:47:57;9.80;99.90
19665;DHT22;9980;51.020;7.772;2024-03-29T05:50:24;9.90;99.90
19665;DHT22;9980;51.020;7.772;2024-03-29T05:52:51;9.90;99.90
19665;DHT22;9980;51.020;7.772;2024-03-29T05:55:18;9.90;99.90
19665;DHT22;9980;51.020;7.772;2024-03-29T05:57:45;9.90;99.90
19665;DHT22;9980;51.020;7.772;2024-03-29T06:00:12;9.90;99.90
19665;DHT22;9980;51.020;7.772;2024-03-29T06:02:42;9.90;99.90
19665;DHT22;9980;51.020;7.772;2024-03-29T06:05:11;9.90;99.90
19665;DHT22;9980;51.020;7.772;2024-03-29T06:07:37;9.90;99.90
19665;DHT22;9980;51.020;7.772;2024-03-29T06:10:03;9.90;99.90
19665;DHT22;9980;51.020;7.772;2024-03-29T06:12:32;9.90;99.90
19665;DHT22;9980;51.020;7.772;2024-03-29T06:14:58;9.90;99.90
19665;DHT22;9980;51.020;7.772;2024-03-29T06:17:42;10.00;99.90
19665;DHT22;9980;51.020;7.772;2024-03-29T06:20:08;10.00;99.90
19665;DHT22;9980;51.020;7.772;2024-03-29T06:22:35;10.00;99.90
19665;DHT22;9980;51.020;7.772;2024-03-29T06:25:01;10.00;99.90
19665;DHT22;9980;51.020;7.772;2024-03-29T06:27:33;10.00;99.90
19665;DHT22;9980;51.020;7.772;2024-03-29T06:30:00;10.10;99.90
19665;DHT22;9980;51.020;7.772;2024-03-29T06:32:27;10.10;99.90
19665;DHT22;9980;51.020;7.772;2024-03-29T06:34:53;10.10;99.90
19665;DHT22;9980;51.020;7.772;2024-03-29T06:37:19;10.20;99.90
19665;DHT22;9980;51.020;7.772;2024-03-29T06:39:51;10.20;99.90
19665;DHT22;9980;51.020;7.772;2024-03-29T06:42:17;10.20;99.90
19665;DHT22;9980;51.020;7.772;2024-03-29T06:44:43;10.30;99.90
19665;DHT22;9980;51.020;7.772;2024-03-29T06:47:09;10.30;99.90
19665;DHT22;9980;51.020;7.772;2024-03-29T06:49:35;10.30;99.90
19665;DHT22;9980;51.020;7.772;2024-03-29T06:52:02;10.40;99.90
19665;DHT22;9980;51.020;7.772;2024-03-29T06:54:28;10.40;99.90
19665;DHT22;9980;51.020;7.772;2024-03-29T06:56:55;10.50;99.90
19665;DHT22;9980;51.020;7.772;2024-03-29T06:59:21;10.50;99.90
19665;DHT22;9980;51.020;7.772;2024-03-29T07:01:48;10.50;99.90
19665;DHT22;9980;51.020;7.772;2024-03-29T07:04:19;10.50;99.90
19665;DHT22;9980;51.020;7.772;2024-03-29T07:06:45;10.60;99.90
19665;DHT22;9980;51.020;7.772;2024-03-29T07:09:17;10.60;99.90
19665;DHT22;9980;51.020;7.772;2024-03-29T07:11:49;10.70;99.90
19665;DHT22;9980;51.020;7.772;2024-03-29T07:14:17;10.70;99.90
19665;DHT22;9980;51.020;7.772;2024-03-29T07:16:45;10.70;99.90
19665;DHT22;9980;51.020;7.772;2024-03-29T07:19:12;10.80;99.90
19665;DHT22;9980;51.020;7.772;2024-03-29T07:21:39;10.80;99.90
19665;DHT22;9980;51.020;7.772;2024-03-29T07:24:06;10.80;99.90
19665;DHT22;9980;51.020;7.772;2024-03-29T07:26:32;10.80;99.90
19665;DHT22;9980;51.020;7.772;2024-03-29T07:28:59;10.90;99.90
19665;DHT22;9980;51.020;7.772;2024-03-29T07:31:24;10.90;99.90
19665;DHT22;9980;51.020;7.772;2024-03-29T07:33:51;10.90;99.90
19665;DHT22;9980;51.020;7.772;2024-03-29T07:36:17;11.00;99.90
19665;DHT22;9980;51.020;7.772;2024-03-29T07:38:43;11.00;99.90
19665;DHT22;9980;51.020;7.772;2024-03-29T07:41:10;11.00;99.90
19665;DHT22;9980;51.020;7.772;2024-03-29T07:43:40;11.10;99.90
19665;DHT22;9980;51.020;7.772;2024-03-29T07:46:07;11.10;99.90
19665;DHT22;9980;51.020;7.772;2024-03-29T07:48:35;11.20;99.90
19665;DHT22;9980;51.020;7.772;2024-03-29T07:51:01;11.20;99.90
19665;DHT22;9980;51.020;7.772;2024-03-29T07:53:28;11.30;99.90
19665;DHT22;9980;51.020;7.772;2024-03-29T07:55:54;11.30;99.90
19665;DHT22;9980;51.020;7.772;2024-03-29T07:58:21;11.30;99.90
19665;DHT22;9980;51.020;7.772;2024-03-29T08:00:47;11.40;99.90
19665;DHT22;9980;51.020;7.772;2024-03-29T08:03:14;11.40;99.90
19665;DHT22;9980;51.020;7.772;2024-03-29T08:05:40;11.50;99.90
19665;DHT22;9980;51.020;7.772;2024-03-29T08:08:06;11.50;99.90
19665;DHT22;9980;51.020;7.772;2024-03-29T08:10:32;11.50;99.90
19665;DHT22;9980;51.020;7.772;2024-03-29T08:12:58;11.60;99.90
19665;DHT22;9980;51.020;7.772;2024-03-29T08:15:26;11.60;99.90
19665;DHT22;9980;51.020;7.772;2024-03-29T08:17:53;11.60;99.90
19665;DHT22;9980;51.020;7.772;2024-03-29T08:20:19;11.70;99.90
19665;DHT22;9980;51.020;7.772;2024-03-29T08:22:45;11.70;99.90
19665;DHT22;9980;51.020;7.772;2024-03-29T08:25:11;11.80;99.90
19665;DHT22;9980;51.020;7.772;2024-03-29T08:27:37;11.80;99.90
19665;DHT22;9980;51.020;7.772;2024-03-29T08:30:03;11.90;99.90
19665;DHT22;9980;51.020;7.772;2024-03-29T08:32:29;11.90;99.90
19665;DHT22;9980;51.020;7.772;2024-03-29T08:34:55;11.90;99.90
19665;DHT22;9980;51.020;7.772;2024-03-29T08:37:21;11.90;99.90
19665;DHT22;9980;51.020;7.772;2024-03-29T08:39:47;12.00;99.90
19665;DHT22;9980;51.020;7.772;2024-03-29T08:42:14;12.00;99.90
19665;DHT22;9980;51.020;7.772;2024-03-29T08:44:40;12.10;99.90
19665;DHT22;9980;51.020;7.772;2024-03-29T08:47:06;12.10;99.90
19665;DHT22;9980;51.020;7.772;2024-03-29T08:49:32;12.10;99.90
19665;DHT22;9980;51.020;7.772;2024-03-29T08:51:58;12.10;99.90
19665;DHT22;9980;51.020;7.772;2024-03-29T08:54:26;12.20;99.90
19665;DHT22;9980;51.020;7.772;2024-03-29T08:56:53;12.20;99.90
19665;DHT22;9980;51.020;7.772;2024-03-29T08:59:19;12.20;99.90
19665;DHT22;9980;51.020;7.772;2024-03-29T09:01:46;12.30;99.90
19665;DHT22;9980;51.020;7.772;2024-03-29T09:04:15;12.30;99.90
19665;DHT22;9980;51.020;7.772;2024-03-29T09:06:41;12.40;99.90
19665;DHT22;9980;51.020;7.772;2024-03-29T09:09:08;12.40;99.90
19665;DHT22;9980;51.020;7.772;2024-03-29T09:11:35;12.40;99.90
19665;DHT22;9980;51.020;7.772;2024-03-29T09:14:01;12.50;99.90
19665;DHT22;9980;51.020;7.772;2024-03-29T09:16:29;12.50;99.90
19665;DHT22;9980;51.020;7.772;2024-03-29T09:18:56;12.60;99.90
19665;DHT22;9980;51.020;7.772;2024-03-29T09:21:22;12.60;99.90
19665;DHT22;9980;51.020;7.772;2024-03-29T09:23:49;12.60;99.90
19665;DHT22;9980;51.020;7.772;2024-03-29T09:26:18;12.70;99.90
19665;DHT22;9980;51.020;7.772;2024-03-29T09:28:44;12.70;99.90
19665;DHT22;9980;51.020;7.772;2024-03-29T09:31:10;12.80;99.90
19665;DHT22;9980;51.020;7.772;2024-03-29T09:33:36;12.80;99.90
19665;DHT22;9980;51.020;7.772;2024-03-29T09:36:03;12.80;99.90
19665;DHT22;9980;51.020;7.772;2024-03-29T09:38:29;12.80;99.90
19665;DHT22;9980;51.020;7.772;2024-03-29T09:41:14;12.90;99.90
19665;DHT22;9980;51.020;7.772;2024-03-29T09:43:45;12.90;99.90
19665;DHT22;9980;51.020;7.772;2024-03-29T09:46:16;12.90;99.90
19665;DHT22;9980;51.020;7.772;2024-03-29T09:48:44;13.00;99.90
19665;DHT22;9980;51.020;7.772;2024-03-29T09:51:14;13.00;99.90
19665;DHT22;9980;51.020;7.772;2024-03-29T09:53:44;13.00;99.90
19665;DHT22;9980;51.020;7.772;2024-03-29T09:56:10;13.00;99.90
19665;DHT22;9980;51.020;7.772;2024-03-29T09:58:37;13.00;99.90
19665;DHT22;9980;51.020;7.772;2024-03-29T10:01:06;13.10;99.90
19665;DHT22;9980;51.020;7.772;2024-03-29T10:03:39;13.10;99.90
19665;DHT22;9980;51.020;7.772;2024-03-29T10:06:06;13.10;99.90
19665;DHT22;9980;51.020;7.772;2024-03-29T10:08:38;13.10;99.90
19665;DHT22;9980;51.020;7.772;2024-03-29T10:11:04;13.10;99.90
19665;DHT22;9980;51.020;7.772;2024-03-29T10:13:30;13.10;99.90
19665;DHT22;9980;51.020;7.772;2024-03-29T10:15:56;13.20;99.90
19665;DHT22;9980;51.020;7.772;2024-03-29T10:18:26;13.20;99.90
19665;DHT22;9980;51.020;7.772;2024-03-29T10:23:30;13.20;99.90
19665;DHT22;9980;51.020;7.772;2024-03-29T10:25:57;13.20;99.90
19665;DHT22;9980;51.020;7.772;2024-03-29T10:28:27;13.20;99.90
19665;DHT22;9980;51.020;7.772;2024-03-29T10:30:57;13.30;99.90
19665;DHT22;9980;51.020;7.772;2024-03-29T10:33:23;13.30;99.90
19665;DHT22;9980;51.020;7.772;2024-03-29T10:35:53;13.30;99.90
19665;DHT22;9980;51.020;7.772;2024-03-29T10:38:21;13.30;99.90
19665;DHT22;9980;51.020;7.772;2024-03-29T10:40:48;13.40;99.90
19665;DHT22;9980;51.020;7.772;2024-03-29T10:43:16;13.40;99.90
19665;DHT22;9980;51.020;7.772;2024-03-29T10:45:43;13.40;99.90
19665;DHT22;9980;51.020;7.772;2024-03-29T10:48:09;13.40;99.90
19665;DHT22;9980;51.020;7.772;2024-03-29T10:50:36;13.50;99.90
19665;DHT22;9980;51.020;7.772;2024-03-29T10:53:03;13.40;99.90
19665;DHT22;9980;51.020;7.772;2024-03-29T10:55:29;13.50;99.90
19665;DHT22;9980;51.020;7.772;2024-03-29T10:57:57;13.50;99.90
19665;DHT22;9980;51.020;7.772;2024-03-29T11:00:25;13.60;99.90
19665;DHT22;9980;51.020;7.772;2024-03-29T11:05:50;13.80;99.90
19665;DHT22;9980;51.020;7.772;2024-03-29T11:08:22;13.90;99.90
19665;DHT22;9980;51.020;7.772;2024-03-29T11:10:51;13.90;99.90
19665;DHT22;9980;51.020;7.772;2024-03-29T11:13:44;14.00;99.90
19665;DHT22;9980;51.020;7.772;2024-03-29T11:16:14;14.10;99.90
19665;DHT22;9980;51.020;7.772;2024-03-29T11:18:44;14.10;99.90
19665;DHT22;9980;51.020;7.772;2024-03-29T11:21:14;14.20;99.90
19665;DHT22;9980;51.020;7.772;2024-03-29T11:23:52;14.20;99.90
19665;DHT22;9980;51.020;7.772;2024-03-29T11:26:19;14.30;99.90
19665;DHT22;9980;51.020;7.772;2024-03-29T11:28:49;14.30;99.90
19665;DHT22;9980;51.020;7.772;2024-03-29T11:31:16;14.40;99.90
19665;DHT22;9980;51.020;7.772;2024-03-29T11:36:13;14.40;99.90
19665;DHT22;9980;51.020;7.772;2024-03-29T11:38:42;14.50;99.90
19665;DHT22;9980;51.020;7.772;2024-03-29T11:41:18;14.50;99.90
19665;DHT22;9980;51.020;7.772;2024-03-29T11:43:46;14.50;99.90
19665;DHT22;9980;51.020;7.772;2024-03-29T11:46:13;14.50;99.90
19665;DHT22;9980;51.020;7.772;2024-03-29T11:48:41;14.60;99.90
19665;DHT22;9980;51.020;7.772;2024-03-29T11:51:11;14.60;99.90
19665;DHT22;9980;51.020;7.772;2024-03-29T11:53:40;14.60;99.90
19665;DHT22;9980;51.020;7.772;2024-03-29T11:56:07;14.70;99.90
19665;DHT22;9980;51.020;7.772;2024-03-29T11:58:34;14.70;99.90
19665;DHT22;9980;51.020;7.772;2024-03-29T12:01:01;14.70;99.90
19665;DHT22;9980;51.020;7.772;2024-03-29T12:03:30;14.80;99.90
19665;DHT22;9980;51.020;7.772;2024-03-29T12:05:59;14.80;99.90
19665;DHT22;9980;51.020;7.772;2024-03-29T12:08:29;14.80;99.90
19665;DHT22;9980;51.020;7.772;2024-03-29T12:11:01;14.90;99.90
19665;DHT22;9980;51.020;7.772;2024-03-29T12:13:28;14.90;99.90
19665;DHT22;9980;51.020;7.772;2024-03-29T12:15:55;15.00;99.90
19665;DHT22;9980;51.020;7.772;2024-03-29T12:18:23;15.00;99.90
19665;DHT22;9980;51.020;7.772;2024-03-29T12:20:52;15.00;99.90
19665;DHT22;9980;51.020;7.772;2024-03-29T12:23:19;15.10;99.90
19665;DHT22;9980;51.020;7.772;2024-03-29T12:25:47;15.10;99.90
19665;DHT22;9980;51.020;7.772;2024-03-29T12:28:17;15.20;99.90
19665;DHT22;9980;51.020;7.772;2024-03-29T12:30:46;15.20;99.90
19665;DHT22;9980;51.020;7.772;2024-03-29T12:33:17;15.30;99.90
19665;DHT22;9980;51.020;7.772;2024-03-29T12:35:49;15.40;99.90
19665;DHT22;9980;51.020;7.772;2024-03-29T12:38:19;15.40;99.90
19665;DHT22;9980;51.020;7.772;2024-03-29T12:40:49;15.40;99.90
19665;DHT22;9980;51.020;7.772;2024-03-29T12:43:21;15.40;99.90
19665;DHT22;9980;51.020;7.772;2024-03-29T12:45:49;15.50;99.90
19665;DHT22;9980;51.020;7.772;2024-03-29T12:48:18;15.50;99.90
19665;DHT22;9980;51.020;7.772;2024-03-29T12:50:47;15.50;99.90
19665;DHT22;9980;51.020;7.772;2024-03-29T12:53:14;15.50;99.90
19665;DHT22;9980;51.020;7.772;2024-03-29T12:55:43;15.50;99.90
19665;DHT22;9980;51.020;7.772;2024-03-29T12:58:15;15.40;99.90
19665;DHT22;9980;51.020;7.772;2024-03-29T13:00:45;15.40;99.90
19665;DHT22;9980;51.020;7.772;2024-03-29T13:03:12;15.40;99.90
19665;DHT22;9980;51.020;7.772;2024-03-29T13:05:39;15.30;99.90
19665;DHT22;9980;51.020;7.772;2024-03-29T13:08:14;15.30;99.90
19665;DHT22;9980;51.020;7.772;2024-03-29T13:10:43;15.30;99.90
19665;DHT22;9980;51.020;7.772;2024-03-29T13:13:10;15.30;99.90
19665;DHT22;9980;51.020;7.772;2024-03-29T13:15:38;15.30;99.90
19665;DHT22;9980;51.020;7.772;2024-03-29T13:18:06;15.20;99.90
19665;DHT22;9980;51.020;7.772;2024-03-29T13:20:35;15.20;99.90
19665;DHT22;9980;51.020;7.772;2024-03-29T13:23:06;15.20;99.90
19665;DHT22;9980;51.020;7.772;2024-03-29T13:25:32;15.20;99.90
19665;DHT22;9980;51.020;7.772;2024-03-29T13:27:58;15.20;99.90
19665;DHT22;9980;51.020;7.772;2024-03-29T13:30:26;15.20;99.90
19665;DHT22;9980;51.020;7.772;2024-03-29T13:32:53;15.30;99.90
19665;DHT22;9980;51.020;7.772;2024-03-29T13:35:19;15.20;99.90
19665;DHT22;9980;51.020;7.772;2024-03-29T13:37:50;15.30;99.90
19665;DHT22;9980;51.020;7.772;2024-03-29T13:40:19;15.30;99.90
19665;DHT22;9980;51.020;7.772;2024-03-29T13:42:46;15.30;99.90
19665;DHT22;9980;51.020;7.772;2024-03-29T13:45:12;15.30;99.90
19665;DHT22;9980;51.020;7.772;2024-03-29T13:47:41;15.20;99.90
19665;DHT22;9980;51.020;7.772;2024-03-29T13:50:10;15.20;99.90
19665;DHT22;9980;51.020;7.772;2024-03-29T13:52:37;15.20;99.90
19665;DHT22;9980;51.020;7.772;2024-03-29T13:55:04;15.20;99.90
19665;DHT22;9980;51.020;7.772;2024-03-29T13:57:31;15.20;99.90
19665;DHT22;9980;51.020;7.772;2024-03-29T13:59:58;15.10;99.90
19665;DHT22;9980;51.020;7.772;2024-03-29T14:02:24;15.10;99.90
19665;DHT22;9980;51.020;7.772;2024-03-29T14:04:53;15.10;99.90
19665;DHT22;9980;51.020;7.772;2024-03-29T14:07:20;15.10;99.90
19665;DHT22;9980;51.020;7.772;2024-03-29T14:09:50;15.10;99.90
19665;DHT22;9980;51.020;7.772;2024-03-29T14:12:16;15.10;99.90
19665;DHT22;9980;51.020;7.772;2024-03-29T14:14:44;15.10;99.90
19665;DHT22;9980;51.020;7.772;2024-03-29T14:17:14;15.10;99.90
19665;DHT22;9980;51.020;7.772;2024-03-29T14:19:40;15.10;99.90
19665;DHT22;9980;51.020;7.772;2024-03-29T14:22:07;15.10;99.90
19665;DHT22;9980;51.020;7.772;2024-03-29T14:24:34;15.10;99.90
19665;DHT22;9980;51.020;7.772;2024-03-29T14:27:03;15.20;99.90
19665;DHT22;9980;51.020;7.772;2024-03-29T14:29:33;15.20;99.90
19665;DHT22;9980;51.020;7.772;2024-03-29T14:31:59;15.20;99.90
19665;DHT22;9980;51.020;7.772;2024-03-29T14:34:27;15.20;99.90
19665;DHT22;9980;51.020;7.772;2024-03-29T14:36:53;15.20;99.90
19665;DHT22;9980;51.020;7.772;2024-03-29T14:39:19;15.30;99.90
19665;DHT22;9980;51.020;7.772;2024-03-29T14:41:47;15.30;99.90
19665;DHT22;9980;51.020;7.772;2024-03-29T14:44:16;15.30;99.90
19665;DHT22;9980;51.020;7.772;2024-03-29T14:46:44;15.40;99.90
19665;DHT22;9980;51.020;7.772;2024-03-29T14:49:10;15.40;99.90
19665;DHT22;9980;51.020;7.772;2024-03-29T14:51:40;15.50;99.90
19665;DHT22;9980;51.020;7.772;2024-03-29T14:54:06;15.50;99.90
19665;DHT22;9980;51.020;7.772;2024-03-29T14:56:33;15.60;99.90
19665;DHT22;9980;51.020;7.772;2024-03-29T14:59:04;15.60;99.90
19665;DHT22;9980;51.020;7.772;2024-03-29T15:01:31;15.60;99.90
19665;DHT22;9980;51.020;7.772;2024-03-29T15:03:59;15.70;99.90
19665;DHT22;9980;51.020;7.772;2024-03-29T15:06:25;15.70;99.90
19665;DHT22;9980;51.020;7.772;2024-03-29T15:08:55;15.70;99.90
19665;DHT22;9980;51.020;7.772;2024-03-29T15:11:26;15.70;99.90
19665;DHT22;9980;51.020;7.772;2024-03-29T15:13:52;15.70;99.90
19665;DHT22;9980;51.020;7.772;2024-03-29T15:16:18;15.80;99.90
19665;DHT22;9980;51.020;7.772;2024-03-29T15:18:47;15.80;99.90
19665;DHT22;9980;51.020;7.772;2024-03-29T15:21:13;15.80;99.90
19665;DHT22;9980;51.020;7.772;2024-03-29T15:23:39;15.80;99.90
19665;DHT22;9980;51.020;7.772;2024-03-29T15:26:05;15.90;99.90
19665;DHT22;9980;51.020;7.772;2024-03-29T15:28:31;15.90;99.90
19665;DHT22;9980;51.020;7.772;2024-03-29T15:31:19;15.90;99.90
19665;DHT22;9980;51.020;7.772;2024-03-29T15:33:48;15.90;99.90
19665;DHT22;9980;51.020;7.772;2024-03-29T15:36:15;15.90;99.90
19665;DHT22;9980;51.020;7.772;2024-03-29T15:38:42;15.90;99.90
19665;DHT22;9980;51.020;7.772;2024-03-29T15:41:08;15.90;99.90
19665;DHT22;9980;51.020;7.772;2024-03-29T15:43:35;15.90;99.90
19665;DHT22;9980;51.020;7.772;2024-03-29T15:46:07;15.90;99.90
19665;DHT22;9980;51.020;7.772;2024-03-29T15:48:37;15.90;99.90
19665;DHT22;9980;51.020;7.772;2024-03-29T15:51:07;15.90;99.90
19665;DHT22;9980;51.020;7.772;2024-03-29T15:53:37;15.90;99.90
19665;DHT22;9980;51.020;7.772;2024-03-29T15:56:07;15.90;99.90
19665;DHT22;9980;51.020;7.772;2024-03-29T15:58:36;15.90;99.90
19665;DHT22;9980;51.020;7.772;2024-03-29T16:01:03;15.80;99.90
19665;DHT22;9980;51.020;7.772;2024-03-29T16:03:33;15.80;99.90